sensor_id;sensor_type;location;lat;lon;timestamp;temperature;humidity
13850;DHT22;6995;52.618;13.488;2023-02-23T15:21:31;10.80;99.90
13850;DHT22;6995;52.618;13.488;2023-02-23T18:04:10;9.00;18.90
13850;DHT22;6995;52.618;13.488;2023-02-23T18:13:12;8.90;38.30
13850;DHT22;6995;52.618;13.488;2023-02-23T18:15:54;8.90;53.20
13850;DHT22;6995;52.618;13.488;2023-02-23T18:18:22;8.90;73.20
13850;DHT22;6995;52.618;13.488;2023-02-23T18:21:02;9.00;92.40
13850;DHT22;6995;52.618;13.488;2023-02-23T18:23:36;8.90;81.90
13850;DHT22;6995;52.618;13.488;2023-02-23T18:26:13;9.00;77.40
13850;DHT22;6995;52.618;13.488;2023-02-23T18:28:38;8.90;88.50
13850;DHT22;6995;52.618;13.488;2023-02-23T18:31:18;8.90;86.90
13850;DHT22;6995;52.618;13.488;2023-02-23T18:36:51;8.90;99.90
13850;DHT22;6995;52.618;13.488;2023-02-23T18:39:32;8.90;99.90
13850;DHT22;6995;52.618;13.488;2023-02-23T18:58:11;8.80;99.90
13850;DHT22;6995;52.618;13.488;2023-02-23T19:01:49;8.70;99.90
13850;DHT22;6995;52.618;13.488;2023-02-23T19:05:11;8.70;99.90
13850;DHT22;6995;52.618;13.488;2023-02-23T19:08:19;8.80;99.90
13850;DHT22;6995;52.618;13.488;2023-02-23T19:10:57;8.80;99.90
13850;DHT22;6995;52.618;13.488;2023-02-23T19:13:29;8.70;99.90
13850;DHT22;6995;52.618;13.488;2023-02-23T19:36:04;8.60;99.90
13850;DHT22;6995;52.618;13.488;2023-02-23T19:38:58;8.60;99.90
13850;DHT22;6995;52.618;13.488;2023-02-23T19:44:57;8.60;99.90
13850;DHT22;6995;52.618;13.488;2023-02-23T19:47:44;8.50;99.90
13850;DHT22;6995;52.618;13.488;2023-02-23T19:50:13;8.60;99.90
13850;DHT22;6995;52.618;13.488;2023-02-23T19:52:46;8.60;99.90
13850;DHT22;6995;52.618;13.488;2023-02-23T19:55:13;8.50;99.90
13850;DHT22;6995;52.618;13.488;2023-02-23T19:57:41;8.50;99.90
13850;DHT22;6995;52.618;13.488;2023-02-23T20:00:17;8.30;66.60
13850;DHT22;6995;52.618;13.488;2023-02-23T20:02:43;8.10;1.00
13850;DHT22;6995;52.618;13.488;2023-02-23T20:05:14;8.00;1.00
13850;DHT22;6995;52.618;13.488;2023-02-23T20:07:41;7.90;1.00
13850;DHT22;6995;52.618;13.488;2023-02-23T20:10:08;7.90;1.00
13850;DHT22;6995;52.618;13.488;2023-02-23T20:12:35;7.80;1.00
13850;DHT22;6995;52.618;13.488;2023-02-23T20:15:01;7.80;1.00
13850;DHT22;6995;52.618;13.488;2023-02-23T20:17:28;7.80;1.00
13850;DHT22;6995;52.618;13.488;2023-02-23T20:19:54;7.70;19.90
13850;DHT22;6995;52.618;13.488;2023-02-23T20:22:19;7.70;24.20
13850;DHT22;6995;52.618;13.488;2023-02-23T20:24:47;7.70;36.30
13850;DHT22;6995;52.618;13.488;2023-02-23T20:27:31;7.60;51.00
13850;DHT22;6995;52.618;13.488;2023-02-23T20:29:58;7.50;51.30
13850;DHT22;6995;52.618;13.488;2023-02-23T20:32:25;7.50;62.50
13850;DHT22;6995;52.618;13.488;2023-02-23T20:34:51;7.50;70.20
13850;DHT22;6995;52.618;13.488;2023-02-23T20:37:19;7.60;90.00
13850;DHT22;6995;52.618;13.488;2023-02-23T20:39:45;7.60;88.30
13850;DHT22;6995;52.618;13.488;2023-02-23T20:42:20;7.60;70.00
13850;DHT22;6995;52.618;13.488;2023-02-23T20:44:56;7.50;98.70
13850;DHT22;6995;52.618;13.488;2023-02-23T20:47:25;7.50;92.10
13850;DHT22;6995;52.618;13.488;2023-02-23T20:53:29;7.50;99.90
13850;DHT22;6995;52.618;13.488;2023-02-23T20:56:12;7.60;99.90
13850;DHT22;6995;52.618;13.488;2023-02-23T21:02:38;7.50;90.90
13850;DHT22;6995;52.618;13.488;2023-02-23T21:15:57;7.40;99.90
13850;DHT22;6995;52.618;13.488;2023-02-23T21:18:34;7.40;99.90
13850;DHT22;6995;52.618;13.488;2023-02-23T21:21:05;7.40;99.90
13850;DHT22;6995;52.618;13.488;2023-02-23T21:23:38;7.40;99.90
13850;DHT22;6995;52.618;13.488;2023-02-23T21:26:04;7.40;99.90
13850;DHT22;6995;52.618;13.488;2023-02-23T21:28:45;7.40;96.40
13850;DHT22;6995;52.618;13.488;2023-02-23T21:31:19;7.40;92.80
13850;DHT22;6995;52.618;13.488;2023-02-23T21:33:53;7.40;97.90
13850;DHT22;6995;52.618;13.488;2023-02-23T21:36:28;7.40;90.00
13850;DHT22;6995;52.618;13.488;2023-02-23T21:38:57;7.30;85.90
13850;DHT22;6995;52.618;13.488;2023-02-23T21:41:23;7.30;60.30
13850;DHT22;6995;52.618;13.488;2023-02-23T21:43:49;7.30;64.20
13850;DHT22;6995;52.618;13.488;2023-02-23T21:46:19;7.30;67.10
13850;DHT22;6995;52.618;13.488;2023-02-23T21:48:46;7.30;69.10
13850;DHT22;6995;52.618;13.488;2023-02-23T21:51:14;7.30;79.70
13850;DHT22;6995;52.618;13.488;2023-02-23T21:53:40;7.30;64.30
13850;DHT22;6995;52.618;13.488;2023-02-23T21:56:14;7.20;60.40
13850;DHT22;6995;52.618;13.488;2023-02-23T21:58:49;7.20;77.80
13850;DHT22;6995;52.618;13.488;2023-02-23T22:01:26;7.30;84.20
13850;DHT22;6995;52.618;13.488;2023-02-23T22:03:53;7.20;86.70
13850;DHT22;6995;52.618;13.488;2023-02-23T22:06:35;7.20;78.30
13850;DHT22;6995;52.618;13.488;2023-02-23T22:09:04;7.20;88.80
13850;DHT22;6995;52.618;13.488;2023-02-23T22:11:30;7.20;99.90
13850;DHT22;6995;52.618;13.488;2023-02-23T22:14:02;7.20;99.90
13850;DHT22;6995;52.618;13.488;2023-02-23T22:16:58;7.30;99.00
13850;DHT22;6995;52.618;13.488;2023-02-23T22:19:28;7.20;82.30
13850;DHT22;6995;52.618;13.488;2023-02-23T22:21:58;7.20;82.40
13850;DHT22;6995;52.618;13.488;2023-02-23T22:24:29;7.20;87.20
13850;DHT22;6995;52.618;13.488;2023-02-23T22:26:58;7.10;80.50
13850;DHT22;6995;52.618;13.488;2023-02-23T22:29:33;7.20;99.90
13850;DHT22;6995;52.618;13.488;2023-02-23T22:32:07;7.20;79.90
13850;DHT22;6995;52.618;13.488;2023-02-23T22:34:35;7.10;79.90
13850;DHT22;6995;52.618;13.488;2023-02-23T22:37:03;7.10;78.30
13850;DHT22;6995;52.618;13.488;2023-02-23T22:40:08;7.20;81.00
13850;DHT22;6995;52.618;13.488;2023-02-23T22:43:29;7.20;49.40
13850;DHT22;6995;52.618;13.488;2023-02-23T22:46:37;7.20;37.80
13850;DHT22;6995;52.618;13.488;2023-02-23T22:49:15;7.20;29.00
13850;DHT22;6995;52.618;13.488;2023-02-23T22:54:56;7.20;33.80
13850;DHT22;6995;52.618;13.488;2023-02-23T22:57:22;7.20;37.10
13850;DHT22;6995;52.618;13.488;2023-02-23T23:07:09;7.30;39.20
13850;DHT22;6995;52.618;13.488;2023-02-23T23:10:22;7.30;29.60
13850;DHT22;6995;52.618;13.488;2023-02-23T23:12:51;7.30;17.60
13850;DHT22;6995;52.618;13.488;2023-02-23T23:15:21;7.30;16.00
13850;DHT22;6995;52.618;13.488;2023-02-23T23:17:47;7.30;15.00
13850;DHT22;6995;52.618;13.488;2023-02-23T23:20:18;7.30;12.90
13850;DHT22;6995;52.618;13.488;2023-02-23T23:22:58;7.30;3.60
13850;DHT22;6995;52.618;13.488;2023-02-23T23:25:45;7.20;3.50
13850;DHT22;6995;52.618;13.488;2023-02-23T23:28:13;7.30;10.90
13850;DHT22;6995;52.618;13.488;2023-02-23T23:30:39;7.30;9.60
13850;DHT22;6995;52.618;13.488;2023-02-23T23:33:10;7.30;1.00
13850;DHT22;6995;52.618;13.488;2023-02-23T23:35:50;7.30;1.40
13850;DHT22;6995;52.618;13.488;2023-02-23T23:38:21;7.30;6.60
13850;DHT22;6995;52.618;13.488;2023-02-23T23:40:50;7.30;1.00
13850;DHT22;6995;52.618;13.488;2023-02-23T23:43:18;7.20;1.00
13850;DHT22;6995;52.618;13.488;2023-02-23T23:45:45;7.30;1.00
13850;DHT22;6995;52.618;13.488;2023-02-23T23:48:20;7.20;1.00
13850;DHT22;6995;52.618;13.488;2023-02-23T23:57:28;7.30;1.00
